sensor_id;sensor_type;location;lat;lon;timestamp;temperature;humidity
54202;DHT22;40108;53.152;5.844;2024-03-07T00:00:46;3.90;95.90
54202;DHT22;40108;53.152;5.844;2024-03-07T00:03:13;3.90;96.00
54202;DHT22;40108;53.152;5.844;2024-03-07T00:05:38;3.90;95.90
54202;DHT22;40108;53.152;5.844;2024-03-07T00:08:05;3.90;95.90
54202;DHT22;40108;53.152;5.844;2024-03-07T00:10:31;3.90;95.90
54202;DHT22;40108;53.152;5.844;2024-03-07T00:12:57;3.90;95.90
54202;DHT22;40108;53.152;5.844;2024-03-07T00:15:23;3.90;95.90
54202;DHT22;40108;53.152;5.844;2024-03-07T00:17:49;3.90;95.90
54202;DHT22;40108;53.152;5.844;2024-03-07T00:20:14;3.80;95.90
54202;DHT22;40108;53.152;5.844;2024-03-07T00:22:43;3.80;95.90
54202;DHT22;40108;53.152;5.844;2024-03-07T00:25:09;3.90;96.00
54202;DHT22;40108;53.152;5.844;2024-03-07T00:27:36;3.80;95.90
54202;DHT22;40108;53.152;5.844;2024-03-07T00:30:03;3.80;96.00
54202;DHT22;40108;53.152;5.844;2024-03-07T00:32:30;3.80;96.00
54202;DHT22;40108;53.152;5.844;2024-03-07T00:35:01;3.90;96.00
54202;DHT22;40108;53.152;5.844;2024-03-07T00:37:29;3.80;96.00
54202;DHT22;40108;53.152;5.844;2024-03-07T00:39:56;3.80;96.00
54202;DHT22;40108;53.152;5.844;2024-03-07T00:42:22;3.90;96.00
54202;DHT22;40108;53.152;5.844;2024-03-07T00:44:47;3.80;96.00
54202;DHT22;40108;53.152;5.844;2024-03-07T00:47:15;3.90;96.00
54202;DHT22;40108;53.152;5.844;2024-03-07T00:49:43;3.90;96.00
54202;DHT22;40108;53.152;5.844;2024-03-07T00:52:09;3.80;95.90
54202;DHT22;40108;53.152;5.844;2024-03-07T00:54:35;3.80;95.80
54202;DHT22;40108;53.152;5.844;2024-03-07T00:57:01;3.80;95.80
54202;DHT22;40108;53.152;5.844;2024-03-07T00:59:27;3.70;95.70
54202;DHT22;40108;53.152;5.844;2024-03-07T01:01:53;3.70;95.70
54202;DHT22;40108;53.152;5.844;2024-03-07T01:04:19;3.60;95.80
54202;DHT22;40108;53.152;5.844;2024-03-07T01:06:44;3.60;95.80
54202;DHT22;40108;53.152;5.844;2024-03-07T01:09:10;3.60;95.80
54202;DHT22;40108;53.152;5.844;2024-03-07T01:11:42;3.60;95.80
54202;DHT22;40108;53.152;5.844;2024-03-07T01:14:08;3.50;95.70
54202;DHT22;40108;53.152;5.844;2024-03-07T01:16:34;3.50;95.70
54202;DHT22;40108;53.152;5.844;2024-03-07T01:19:00;3.40;95.80
54202;DHT22;40108;53.152;5.844;2024-03-07T01:21:26;3.40;95.80
54202;DHT22;40108;53.152;5.844;2024-03-07T01:23:52;3.40;95.80
54202;DHT22;40108;53.152;5.844;2024-03-07T01:26:18;3.40;95.80
54202;DHT22;40108;53.152;5.844;2024-03-07T01:28:43;3.30;95.80
54202;DHT22;40108;53.152;5.844;2024-03-07T01:31:09;3.30;95.80
54202;DHT22;40108;53.152;5.844;2024-03-07T01:33:36;3.30;95.70
54202;DHT22;40108;53.152;5.844;2024-03-07T01:36:01;3.20;95.70
54202;DHT22;40108;53.152;5.844;2024-03-07T01:38:27;3.20;95.70
54202;DHT22;40108;53.152;5.844;2024-03-07T01:40:53;3.20;95.70
54202;DHT22;40108;53.152;5.844;2024-03-07T01:43:20;3.20;95.70
54202;DHT22;40108;53.152;5.844;2024-03-07T01:45:47;3.20;95.60
54202;DHT22;40108;53.152;5.844;2024-03-07T01:48:16;3.10;95.60
54202;DHT22;40108;53.152;5.844;2024-03-07T01:50:46;3.10;95.50
54202;DHT22;40108;53.152;5.844;2024-03-07T01:53:13;3.00;95.50
54202;DHT22;40108;53.152;5.844;2024-03-07T01:55:40;3.00;95.50
54202;DHT22;40108;53.152;5.844;2024-03-07T01:58:08;3.00;95.50
54202;DHT22;40108;53.152;5.844;2024-03-07T02:00:35;2.90;95.50
54202;DHT22;40108;53.152;5.844;2024-03-07T02:03:01;2.90;95.50
54202;DHT22;40108;53.152;5.844;2024-03-07T02:05:26;2.90;95.40
54202;DHT22;40108;53.152;5.844;2024-03-07T02:07:52;2.90;95.40
54202;DHT22;40108;53.152;5.844;2024-03-07T02:10:18;2.80;95.40
54202;DHT22;40108;53.152;5.844;2024-03-07T02:12:43;2.80;95.40
54202;DHT22;40108;53.152;5.844;2024-03-07T02:15:10;2.80;95.40
54202;DHT22;40108;53.152;5.844;2024-03-07T02:17:37;2.80;95.40
54202;DHT22;40108;53.152;5.844;2024-03-07T02:20:03;2.80;95.40
54202;DHT22;40108;53.152;5.844;2024-03-07T02:22:30;2.70;95.40
54202;DHT22;40108;53.152;5.844;2024-03-07T02:24:56;2.70;95.40
54202;DHT22;40108;53.152;5.844;2024-03-07T02:27:21;2.70;95.30
54202;DHT22;40108;53.152;5.844;2024-03-07T02:29:47;2.70;95.40
54202;DHT22;40108;53.152;5.844;2024-03-07T02:32:14;2.60;95.50
54202;DHT22;40108;53.152;5.844;2024-03-07T02:34:40;2.60;95.50
54202;DHT22;40108;53.152;5.844;2024-03-07T02:37:05;2.60;95.40
54202;DHT22;40108;53.152;5.844;2024-03-07T02:39:31;2.60;95.40
54202;DHT22;40108;53.152;5.844;2024-03-07T02:41:57;2.60;95.40
54202;DHT22;40108;53.152;5.844;2024-03-07T02:44:22;2.60;95.40
54202;DHT22;40108;53.152;5.844;2024-03-07T02:46:48;2.50;95.40
54202;DHT22;40108;53.152;5.844;2024-03-07T02:49:14;2.50;95.30
54202;DHT22;40108;53.152;5.844;2024-03-07T02:51:40;2.50;95.40
54202;DHT22;40108;53.152;5.844;2024-03-07T02:54:07;2.50;95.40
54202;DHT22;40108;53.152;5.844;2024-03-07T02:56:33;2.40;95.30
54202;DHT22;40108;53.152;5.844;2024-03-07T02:58:59;2.40;95.40
54202;DHT22;40108;53.152;5.844;2024-03-07T03:01:25;2.40;95.40
54202;DHT22;40108;53.152;5.844;2024-03-07T03:03:51;2.40;95.40
54202;DHT22;40108;53.152;5.844;2024-03-07T03:06:17;2.30;95.30
54202;DHT22;40108;53.152;5.844;2024-03-07T03:08:46;2.30;95.30
54202;DHT22;40108;53.152;5.844;2024-03-07T03:11:12;2.30;95.30
54202;DHT22;40108;53.152;5.844;2024-03-07T03:13:42;2.30;95.40
54202;DHT22;40108;53.152;5.844;2024-03-07T03:16:09;2.30;95.40
54202;DHT22;40108;53.152;5.844;2024-03-07T03:18:35;2.30;95.50
54202;DHT22;40108;53.152;5.844;2024-03-07T03:21:02;2.20;95.40
54202;DHT22;40108;53.152;5.844;2024-03-07T03:23:28;2.20;95.40
54202;DHT22;40108;53.152;5.844;2024-03-07T03:25:54;2.20;95.40
54202;DHT22;40108;53.152;5.844;2024-03-07T03:28:21;2.20;95.50
54202;DHT22;40108;53.152;5.844;2024-03-07T03:30:47;2.20;95.50
54202;DHT22;40108;53.152;5.844;2024-03-07T03:33:13;2.20;95.40
54202;DHT22;40108;53.152;5.844;2024-03-07T03:35:40;2.20;95.50
54202;DHT22;40108;53.152;5.844;2024-03-07T03:38:07;2.20;95.50
54202;DHT22;40108;53.152;5.844;2024-03-07T03:40:33;2.20;95.50
54202;DHT22;40108;53.152;5.844;2024-03-07T03:43:00;2.20;95.50
54202;DHT22;40108;53.152;5.844;2024-03-07T03:45:26;2.20;95.50
54202;DHT22;40108;53.152;5.844;2024-03-07T03:47:53;2.20;95.60
54202;DHT22;40108;53.152;5.844;2024-03-07T03:50:19;2.20;95.50
54202;DHT22;40108;53.152;5.844;2024-03-07T03:52:45;2.20;95.50
54202;DHT22;40108;53.152;5.844;2024-03-07T03:55:11;2.20;95.50
54202;DHT22;40108;53.152;5.844;2024-03-07T03:57:41;2.20;95.50
54202;DHT22;40108;53.152;5.844;2024-03-07T04:00:09;2.10;95.50
54202;DHT22;40108;53.152;5.844;2024-03-07T04:02:46;2.20;95.50
54202;DHT22;40108;53.152;5.844;2024-03-07T04:05:17;2.20;95.70
54202;DHT22;40108;53.152;5.844;2024-03-07T04:07:43;2.10;95.70
54202;DHT22;40108;53.152;5.844;2024-03-07T04:10:10;2.20;95.80
54202;DHT22;40108;53.152;5.844;2024-03-07T04:12:40;2.20;95.70
54202;DHT22;40108;53.152;5.844;2024-03-07T04:15:07;2.20;95.70
54202;DHT22;40108;53.152;5.844;2024-03-07T04:17:33;2.10;95.60
54202;DHT22;40108;53.152;5.844;2024-03-07T04:20:03;2.10;95.60
54202;DHT22;40108;53.152;5.844;2024-03-07T04:22:33;2.10;95.60
54202;DHT22;40108;53.152;5.844;2024-03-07T04:24:59;2.10;95.60
54202;DHT22;40108;53.152;5.844;2024-03-07T04:27:26;2.00;95.60
54202;DHT22;40108;53.152;5.844;2024-03-07T04:29:52;2.00;95.60
54202;DHT22;40108;53.152;5.844;2024-03-07T04:32:18;2.00;95.60
54202;DHT22;40108;53.152;5.844;2024-03-07T04:34:44;2.00;95.60
54202;DHT22;40108;53.152;5.844;2024-03-07T04:37:10;1.90;95.50
54202;DHT22;40108;53.152;5.844;2024-03-07T04:39:38;1.90;95.50
54202;DHT22;40108;53.152;5.844;2024-03-07T04:42:04;1.90;95.50
54202;DHT22;40108;53.152;5.844;2024-03-07T04:44:30;1.90;95.50
54202;DHT22;40108;53.152;5.844;2024-03-07T04:46:58;1.80;95.50
54202;DHT22;40108;53.152;5.844;2024-03-07T04:49:25;1.80;95.50
54202;DHT22;40108;53.152;5.844;2024-03-07T04:51:52;1.80;95.50
54202;DHT22;40108;53.152;5.844;2024-03-07T04:54:18;1.70;95.40
54202;DHT22;40108;53.152;5.844;2024-03-07T04:56:45;1.70;95.50
54202;DHT22;40108;53.152;5.844;2024-03-07T04:59:12;1.70;95.40
54202;DHT22;40108;53.152;5.844;2024-03-07T05:01:38;1.70;95.40
54202;DHT22;40108;53.152;5.844;2024-03-07T05:04:05;1.70;95.40
54202;DHT22;40108;53.152;5.844;2024-03-07T05:06:31;1.60;95.40
54202;DHT22;40108;53.152;5.844;2024-03-07T05:09:03;1.50;95.30
54202;DHT22;40108;53.152;5.844;2024-03-07T05:11:30;1.50;95.40
54202;DHT22;40108;53.152;5.844;2024-03-07T05:13:56;1.50;95.30
54202;DHT22;40108;53.152;5.844;2024-03-07T05:16:27;1.50;95.40
54202;DHT22;40108;53.152;5.844;2024-03-07T05:18:53;1.50;95.40
54202;DHT22;40108;53.152;5.844;2024-03-07T05:21:19;1.40;95.40
54202;DHT22;40108;53.152;5.844;2024-03-07T05:24:06;1.40;95.40
54202;DHT22;40108;53.152;5.844;2024-03-07T05:26:34;1.40;95.40
54202;DHT22;40108;53.152;5.844;2024-03-07T05:29:06;1.30;95.40
54202;DHT22;40108;53.152;5.844;2024-03-07T05:31:39;1.30;95.40
54202;DHT22;40108;53.152;5.844;2024-03-07T05:34:09;1.30;95.40
54202;DHT22;40108;53.152;5.844;2024-03-07T05:36:35;1.30;95.40
54202;DHT22;40108;53.152;5.844;2024-03-07T05:39:02;1.30;95.40
54202;DHT22;40108;53.152;5.844;2024-03-07T05:41:38;1.30;95.50
54202;DHT22;40108;53.152;5.844;2024-03-07T05:44:04;1.30;95.50
54202;DHT22;40108;53.152;5.844;2024-03-07T05:46:35;1.30;95.50
54202;DHT22;40108;53.152;5.844;2024-03-07T05:49:01;1.20;95.50
54202;DHT22;40108;53.152;5.844;2024-03-07T05:51:27;1.20;95.50
54202;DHT22;40108;53.152;5.844;2024-03-07T05:53:53;1.30;95.60
54202;DHT22;40108;53.152;5.844;2024-03-07T05:56:19;1.30;95.60
54202;DHT22;40108;53.152;5.844;2024-03-07T05:58:45;1.30;95.70
54202;DHT22;40108;53.152;5.844;2024-03-07T06:01:11;1.30;95.80
54202;DHT22;40108;53.152;5.844;2024-03-07T06:03:37;1.30;95.90
54202;DHT22;40108;53.152;5.844;2024-03-07T06:06:03;1.30;96.20
54202;DHT22;40108;53.152;5.844;2024-03-07T06:08:30;1.40;96.20
54202;DHT22;40108;53.152;5.844;2024-03-07T06:10:56;1.40;96.20
54202;DHT22;40108;53.152;5.844;2024-03-07T06:13:23;1.40;96.30
54202;DHT22;40108;53.152;5.844;2024-03-07T06:15:49;1.40;96.20
54202;DHT22;40108;53.152;5.844;2024-03-07T06:18:14;1.40;96.20
54202;DHT22;40108;53.152;5.844;2024-03-07T06:20:44;1.50;96.30
54202;DHT22;40108;53.152;5.844;2024-03-07T06:23:10;1.50;96.30
54202;DHT22;40108;53.152;5.844;2024-03-07T06:25:41;1.50;96.30
54202;DHT22;40108;53.152;5.844;2024-03-07T06:28:16;1.50;96.30
54202;DHT22;40108;53.152;5.844;2024-03-07T06:30:44;1.50;96.30
54202;DHT22;40108;53.152;5.844;2024-03-07T06:33:11;1.50;96.20
54202;DHT22;40108;53.152;5.844;2024-03-07T06:35:38;1.50;96.20
54202;DHT22;40108;53.152;5.844;2024-03-07T06:38:10;1.50;96.20
54202;DHT22;40108;53.152;5.844;2024-03-07T06:40:40;1.50;96.30
54202;DHT22;40108;53.152;5.844;2024-03-07T06:43:06;1.50;96.30
54202;DHT22;40108;53.152;5.844;2024-03-07T06:45:33;1.60;96.20
54202;DHT22;40108;53.152;5.844;2024-03-07T06:47:59;1.60;96.30
54202;DHT22;40108;53.152;5.844;2024-03-07T06:50:26;1.60;96.30
54202;DHT22;40108;53.152;5.844;2024-03-07T06:52:54;1.70;96.30
54202;DHT22;40108;53.152;5.844;2024-03-07T06:55:20;1.70;96.30
54202;DHT22;40108;53.152;5.844;2024-03-07T06:57:46;1.70;96.30
54202;DHT22;40108;53.152;5.844;2024-03-07T07:00:13;1.80;96.30
54202;DHT22;40108;53.152;5.844;2024-03-07T07:02:40;1.70;96.20
54202;DHT22;40108;53.152;5.844;2024-03-07T07:05:09;1.80;96.20
54202;DHT22;40108;53.152;5.844;2024-03-07T07:07:50;1.80;96.10
54202;DHT22;40108;53.152;5.844;2024-03-07T07:10:18;1.80;96.20
54202;DHT22;40108;53.152;5.844;2024-03-07T07:12:48;1.90;96.20
54202;DHT22;40108;53.152;5.844;2024-03-07T07:15:15;1.90;96.30
54202;DHT22;40108;53.152;5.844;2024-03-07T07:17:43;2.00;96.30
54202;DHT22;40108;53.152;5.844;2024-03-07T07:20:11;2.10;96.40
54202;DHT22;40108;53.152;5.844;2024-03-07T07:22:39;2.20;96.40
54202;DHT22;40108;53.152;5.844;2024-03-07T07:25:06;2.30;96.50
54202;DHT22;40108;53.152;5.844;2024-03-07T07:27:51;2.40;96.50
54202;DHT22;40108;53.152;5.844;2024-03-07T07:30:19;2.60;96.40
54202;DHT22;40108;53.152;5.844;2024-03-07T07:32:48;2.70;96.40
54202;DHT22;40108;53.152;5.844;2024-03-07T07:35:14;2.70;96.10
54202;DHT22;40108;53.152;5.844;2024-03-07T07:37:41;2.80;96.00
54202;DHT22;40108;53.152;5.844;2024-03-07T07:40:09;2.80;95.70
54202;DHT22;40108;53.152;5.844;2024-03-07T07:42:38;2.80;95.80
54202;DHT22;40108;53.152;5.844;2024-03-07T07:45:11;2.90;95.90
54202;DHT22;40108;53.152;5.844;2024-03-07T07:47:44;3.00;95.80
54202;DHT22;40108;53.152;5.844;2024-03-07T07:50:14;3.20;95.60
54202;DHT22;40108;53.152;5.844;2024-03-07T07:52:41;3.20;95.50
54202;DHT22;40108;53.152;5.844;2024-03-07T07:55:07;3.40;95.60
54202;DHT22;40108;53.152;5.844;2024-03-07T07:57:47;3.60;95.60
54202;DHT22;40108;53.152;5.844;2024-03-07T08:00:15;3.70;94.90
54202;DHT22;40108;53.152;5.844;2024-03-07T08:05:24;3.60;93.90
54202;DHT22;40108;53.152;5.844;2024-03-07T08:07:56;3.70;94.30
54202;DHT22;40108;53.152;5.844;2024-03-07T08:10:25;3.70;93.70
54202;DHT22;40108;53.152;5.844;2024-03-07T08:12:54;3.70;93.20
54202;DHT22;40108;53.152;5.844;2024-03-07T08:15:20;3.70;93.20
54202;DHT22;40108;53.152;5.844;2024-03-07T08:17:47;3.70;92.90
54202;DHT22;40108;53.152;5.844;2024-03-07T08:20:15;3.60;93.20
54202;DHT22;40108;53.152;5.844;2024-03-07T08:22:42;3.60;93.50
54202;DHT22;40108;53.152;5.844;2024-03-07T08:25:10;3.60;93.50
54202;DHT22;40108;53.152;5.844;2024-03-07T08:27:40;3.50;93.50
54202;DHT22;40108;53.152;5.844;2024-03-07T08:30:08;3.40;93.70
54202;DHT22;40108;53.152;5.844;2024-03-07T08:32:39;3.40;94.00
54202;DHT22;40108;53.152;5.844;2024-03-07T08:35:06;3.30;94.10
54202;DHT22;40108;53.152;5.844;2024-03-07T08:37:52;3.20;94.10
54202;DHT22;40108;53.152;5.844;2024-03-07T08:40:20;3.20;94.40
54202;DHT22;40108;53.152;5.844;2024-03-07T08:42:53;3.10;94.10
54202;DHT22;40108;53.152;5.844;2024-03-07T08:45:22;3.00;94.10
54202;DHT22;40108;53.152;5.844;2024-03-07T08:47:53;2.80;94.50
54202;DHT22;40108;53.152;5.844;2024-03-07T08:50:22;2.70;94.90
54202;DHT22;40108;53.152;5.844;2024-03-07T08:52:49;2.70;95.30
54202;DHT22;40108;53.152;5.844;2024-03-07T08:55:20;2.70;95.40
54202;DHT22;40108;53.152;5.844;2024-03-07T08:57:46;2.70;95.30
54202;DHT22;40108;53.152;5.844;2024-03-07T09:00:14;2.60;95.40
54202;DHT22;40108;53.152;5.844;2024-03-07T09:02:50;2.50;95.70
54202;DHT22;40108;53.152;5.844;2024-03-07T09:05:18;2.50;96.00
54202;DHT22;40108;53.152;5.844;2024-03-07T09:07:44;2.50;96.20
54202;DHT22;40108;53.152;5.844;2024-03-07T09:10:12;2.60;96.30
54202;DHT22;40108;53.152;5.844;2024-03-07T09:12:38;2.50;96.30
54202;DHT22;40108;53.152;5.844;2024-03-07T09:15:04;2.50;96.20
54202;DHT22;40108;53.152;5.844;2024-03-07T09:17:30;2.50;96.30
54202;DHT22;40108;53.152;5.844;2024-03-07T09:19:56;2.50;96.40
54202;DHT22;40108;53.152;5.844;2024-03-07T09:22:21;2.50;96.60
54202;DHT22;40108;53.152;5.844;2024-03-07T09:24:47;2.60;96.50
54202;DHT22;40108;53.152;5.844;2024-03-07T09:27:13;2.60;96.50
54202;DHT22;40108;53.152;5.844;2024-03-07T09:29:45;2.70;96.70
54202;DHT22;40108;53.152;5.844;2024-03-07T09:32:13;2.70;96.60
54202;DHT22;40108;53.152;5.844;2024-03-07T09:34:38;2.80;96.70
54202;DHT22;40108;53.152;5.844;2024-03-07T09:37:04;2.80;96.00
54202;DHT22;40108;53.152;5.844;2024-03-07T09:39:32;2.90;96.30
54202;DHT22;40108;53.152;5.844;2024-03-07T09:42:01;2.90;96.10
54202;DHT22;40108;53.152;5.844;2024-03-07T09:44:28;2.90;96.10
54202;DHT22;40108;53.152;5.844;2024-03-07T09:46:55;3.00;96.00
54202;DHT22;40108;53.152;5.844;2024-03-07T09:49:24;3.00;96.00
54202;DHT22;40108;53.152;5.844;2024-03-07T09:51:51;3.10;95.90
54202;DHT22;40108;53.152;5.844;2024-03-07T09:54:23;3.00;95.50
54202;DHT22;40108;53.152;5.844;2024-03-07T09:56:53;2.90;95.60
54202;DHT22;40108;53.152;5.844;2024-03-07T09:59:19;2.90;95.60
54202;DHT22;40108;53.152;5.844;2024-03-07T10:01:50;2.90;95.60
54202;DHT22;40108;53.152;5.844;2024-03-07T10:04:24;2.80;95.30
54202;DHT22;40108;53.152;5.844;2024-03-07T10:06:52;2.80;95.60
54202;DHT22;40108;53.152;5.844;2024-03-07T10:09:21;2.80;95.90
54202;DHT22;40108;53.152;5.844;2024-03-07T10:11:59;2.90;95.50
54202;DHT22;40108;53.152;5.844;2024-03-07T10:14:25;3.00;95.50
54202;DHT22;40108;53.152;5.844;2024-03-07T10:16:53;3.10;95.70
54202;DHT22;40108;53.152;5.844;2024-03-07T10:19:22;3.10;95.60
54202;DHT22;40108;53.152;5.844;2024-03-07T10:21:47;3.10;95.60
54202;DHT22;40108;53.152;5.844;2024-03-07T10:24:13;3.20;95.40
54202;DHT22;40108;53.152;5.844;2024-03-07T10:26:40;3.20;95.10
54202;DHT22;40108;53.152;5.844;2024-03-07T10:29:09;3.20;95.00
54202;DHT22;40108;53.152;5.844;2024-03-07T10:31:35;3.20;95.10
54202;DHT22;40108;53.152;5.844;2024-03-07T10:34:03;3.20;95.00
54202;DHT22;40108;53.152;5.844;2024-03-07T10:36:32;3.20;95.00
54202;DHT22;40108;53.152;5.844;2024-03-07T10:38:59;3.20;94.80
54202;DHT22;40108;53.152;5.844;2024-03-07T10:41:47;3.20;94.40
54202;DHT22;40108;53.152;5.844;2024-03-07T10:44:24;3.10;94.60
54202;DHT22;40108;53.152;5.844;2024-03-07T10:46:55;3.10;94.70
54202;DHT22;40108;53.152;5.844;2024-03-07T10:49:21;3.20;94.70
54202;DHT22;40108;53.152;5.844;2024-03-07T10:52:02;3.20;94.60
54202;DHT22;40108;53.152;5.844;2024-03-07T10:55:08;3.20;94.30
54202;DHT22;40108;53.152;5.844;2024-03-07T11:00:10;3.20;94.30
54202;DHT22;40108;53.152;5.844;2024-03-07T11:02:55;3.10;94.00
54202;DHT22;40108;53.152;5.844;2024-03-07T11:05:24;3.20;94.10
54202;DHT22;40108;53.152;5.844;2024-03-07T11:07:51;3.20;93.90
54202;DHT22;40108;53.152;5.844;2024-03-07T11:10:18;3.20;93.90
54202;DHT22;40108;53.152;5.844;2024-03-07T11:12:46;3.20;93.70
54202;DHT22;40108;53.152;5.844;2024-03-07T11:15:14;3.20;93.70
54202;DHT22;40108;53.152;5.844;2024-03-07T11:17:46;3.20;93.80
54202;DHT22;40108;53.152;5.844;2024-03-07T11:20:23;3.20;93.40
54202;DHT22;40108;53.152;5.844;2024-03-07T11:22:50;3.20;93.90
54202;DHT22;40108;53.152;5.844;2024-03-07T11:25:20;3.30;93.50
54202;DHT22;40108;53.152;5.844;2024-03-07T11:27:56;3.40;93.50
54202;DHT22;40108;53.152;5.844;2024-03-07T11:30:23;3.60;93.50
54202;DHT22;40108;53.152;5.844;2024-03-07T11:32:50;3.80;92.40
54202;DHT22;40108;53.152;5.844;2024-03-07T11:35:19;3.90;92.30
54202;DHT22;40108;53.152;5.844;2024-03-07T11:37:57;4.10;91.70
54202;DHT22;40108;53.152;5.844;2024-03-07T11:42:54;4.90;91.20
54202;DHT22;40108;53.152;5.844;2024-03-07T11:45:22;4.90;89.50
54202;DHT22;40108;53.152;5.844;2024-03-07T11:47:55;4.80;90.20
54202;DHT22;40108;53.152;5.844;2024-03-07T11:50:28;4.70;88.60
54202;DHT22;40108;53.152;5.844;2024-03-07T11:52:55;4.60;89.80
54202;DHT22;40108;53.152;5.844;2024-03-07T11:55:24;4.40;89.30
54202;DHT22;40108;53.152;5.844;2024-03-07T11:57:50;4.20;89.90
54202;DHT22;40108;53.152;5.844;2024-03-07T12:00:17;4.20;90.50
54202;DHT22;40108;53.152;5.844;2024-03-07T12:02:44;4.20;90.60
54202;DHT22;40108;53.152;5.844;2024-03-07T12:05:10;4.50;90.70
54202;DHT22;40108;53.152;5.844;2024-03-07T12:07:36;4.70;90.50
54202;DHT22;40108;53.152;5.844;2024-03-07T12:10:03;4.80;90.20
54202;DHT22;40108;53.152;5.844;2024-03-07T12:12:30;4.90;89.90
54202;DHT22;40108;53.152;5.844;2024-03-07T12:14:56;4.80;89.00
54202;DHT22;40108;53.152;5.844;2024-03-07T12:17:23;4.70;88.30
54202;DHT22;40108;53.152;5.844;2024-03-07T12:19:49;4.70;89.20
54202;DHT22;40108;53.152;5.844;2024-03-07T12:22:21;4.80;89.70
54202;DHT22;40108;53.152;5.844;2024-03-07T12:25:05;4.90;89.20
54202;DHT22;40108;53.152;5.844;2024-03-07T12:27:33;4.80;89.20
54202;DHT22;40108;53.152;5.844;2024-03-07T12:29:59;4.70;89.10
54202;DHT22;40108;53.152;5.844;2024-03-07T12:32:33;4.70;88.80
54202;DHT22;40108;53.152;5.844;2024-03-07T12:34:58;4.70;89.70
54202;DHT22;40108;53.152;5.844;2024-03-07T12:37:24;4.80;89.70
54202;DHT22;40108;53.152;5.844;2024-03-07T12:39:55;4.80;89.10
54202;DHT22;40108;53.152;5.844;2024-03-07T12:42:27;4.90;89.80
54202;DHT22;40108;53.152;5.844;2024-03-07T12:44:56;4.90;88.50
54202;DHT22;40108;53.152;5.844;2024-03-07T12:47:24;4.80;88.90
54202;DHT22;40108;53.152;5.844;2024-03-07T12:49:51;4.70;89.20
54202;DHT22;40108;53.152;5.844;2024-03-07T12:52:17;4.80;89.40
54202;DHT22;40108;53.152;5.844;2024-03-07T12:54:43;4.70;88.80
54202;DHT22;40108;53.152;5.844;2024-03-07T12:57:09;4.70;89.10
54202;DHT22;40108;53.152;5.844;2024-03-07T12:59:36;4.80;89.80
54202;DHT22;40108;53.152;5.844;2024-03-07T13:02:09;5.00;89.20
54202;DHT22;40108;53.152;5.844;2024-03-07T13:04:35;5.00;88.70
54202;DHT22;40108;53.152;5.844;2024-03-07T13:07:03;5.10;88.90
54202;DHT22;40108;53.152;5.844;2024-03-07T13:09:33;5.20;88.80
54202;DHT22;40108;53.152;5.844;2024-03-07T13:11:59;5.30;88.50
54202;DHT22;40108;53.152;5.844;2024-03-07T13:14:33;5.40;87.60
54202;DHT22;40108;53.152;5.844;2024-03-07T13:16:59;5.40;88.10
54202;DHT22;40108;53.152;5.844;2024-03-07T13:19:26;5.40;88.40
54202;DHT22;40108;53.152;5.844;2024-03-07T13:21:52;5.40;87.90
54202;DHT22;40108;53.152;5.844;2024-03-07T13:24:19;5.30;87.70
54202;DHT22;40108;53.152;5.844;2024-03-07T13:26:45;5.30;88.10
54202;DHT22;40108;53.152;5.844;2024-03-07T13:29:14;5.40;88.00
54202;DHT22;40108;53.152;5.844;2024-03-07T13:31:40;5.40;88.10
54202;DHT22;40108;53.152;5.844;2024-03-07T13:34:12;5.40;88.40
54202;DHT22;40108;53.152;5.844;2024-03-07T13:36:41;5.40;88.30
54202;DHT22;40108;53.152;5.844;2024-03-07T13:39:11;5.60;88.50
54202;DHT22;40108;53.152;5.844;2024-03-07T13:41:42;5.50;88.10
54202;DHT22;40108;53.152;5.844;2024-03-07T13:44:08;5.60;88.20
54202;DHT22;40108;53.152;5.844;2024-03-07T13:46:33;5.60;88.10
54202;DHT22;40108;53.152;5.844;2024-03-07T13:49:00;5.50;88.30
54202;DHT22;40108;53.152;5.844;2024-03-07T13:51:36;5.50;88.40
54202;DHT22;40108;53.152;5.844;2024-03-07T13:54:02;5.60;88.60
54202;DHT22;40108;53.152;5.844;2024-03-07T13:57:21;5.60;88.50
54202;DHT22;40108;53.152;5.844;2024-03-07T14:00:02;5.70;88.90
54202;DHT22;40108;53.152;5.844;2024-03-07T14:03:39;5.70;88.90
54202;DHT22;40108;53.152;5.844;2024-03-07T14:06:06;5.70;89.00
54202;DHT22;40108;53.152;5.844;2024-03-07T14:14:47;5.90;89.10
54202;DHT22;40108;53.152;5.844;2024-03-07T14:20:39;5.80;88.30
54202;DHT22;40108;53.152;5.844;2024-03-07T14:31:56;5.90;88.20
54202;DHT22;40108;53.152;5.844;2024-03-07T14:37:19;5.90;88.50
54202;DHT22;40108;53.152;5.844;2024-03-07T14:39:48;5.90;88.20
54202;DHT22;40108;53.152;5.844;2024-03-07T14:42:14;5.90;88.20
54202;DHT22;40108;53.152;5.844;2024-03-07T14:44:42;5.80;87.90
54202;DHT22;40108;53.152;5.844;2024-03-07T14:47:12;5.90;87.90
54202;DHT22;40108;53.152;5.844;2024-03-07T14:49:40;5.90;87.50
54202;DHT22;40108;53.152;5.844;2024-03-07T14:52:07;5.80;87.70
54202;DHT22;40108;53.152;5.844;2024-03-07T14:54:37;5.90;87.90
54202;DHT22;40108;53.152;5.844;2024-03-07T14:57:04;5.90;87.60
54202;DHT22;40108;53.152;5.844;2024-03-07T14:59:31;5.90;87.30
54202;DHT22;40108;53.152;5.844;2024-03-07T15:01:57;5.90;87.60
54202;DHT22;40108;53.152;5.844;2024-03-07T15:04:26;5.80;87.80
54202;DHT22;40108;53.152;5.844;2024-03-07T15:06:52;5.90;87.40
54202;DHT22;40108;53.152;5.844;2024-03-07T15:09:23;5.90;87.50
54202;DHT22;40108;53.152;5.844;2024-03-07T15:11:49;5.90;87.70
54202;DHT22;40108;53.152;5.844;2024-03-07T15:14:15;5.80;87.20
54202;DHT22;40108;53.152;5.844;2024-03-07T15:16:41;5.80;86.50
54202;DHT22;40108;53.152;5.844;2024-03-07T15:19:08;5.80;86.90
54202;DHT22;40108;53.152;5.844;2024-03-07T15:21:37;5.80;86.70
54202;DHT22;40108;53.152;5.844;2024-03-07T15:24:06;5.80;86.90
54202;DHT22;40108;53.152;5.844;2024-03-07T15:26:32;5.80;87.20
54202;DHT22;40108;53.152;5.844;2024-03-07T15:28:59;5.80;87.30
54202;DHT22;40108;53.152;5.844;2024-03-07T15:31:26;5.90;87.50
54202;DHT22;40108;53.152;5.844;2024-03-07T15:33:52;5.80;87.60
54202;DHT22;40108;53.152;5.844;2024-03-07T15:36:19;5.80;87.60
54202;DHT22;40108;53.152;5.844;2024-03-07T15:38:47;5.80;87.80
54202;DHT22;40108;53.152;5.844;2024-03-07T15:41:13;5.90;88.00
54202;DHT22;40108;53.152;5.844;2024-03-07T15:43:39;5.80;88.30
54202;DHT22;40108;53.152;5.844;2024-03-07T15:46:06;5.80;88.50
54202;DHT22;40108;53.152;5.844;2024-03-07T15:48:32;5.90;88.70
54202;DHT22;40108;53.152;5.844;2024-03-07T15:50:58;5.80;88.70
54202;DHT22;40108;53.152;5.844;2024-03-07T15:53:25;5.90;88.90
54202;DHT22;40108;53.152;5.844;2024-03-07T15:55:51;5.80;89.00
54202;DHT22;40108;53.152;5.844;2024-03-07T15:58:16;5.80;89.10
54202;DHT22;40108;53.152;5.844;2024-03-07T16:00:45;5.80;89.20
54202;DHT22;40108;53.152;5.844;2024-03-07T16:03:14;5.80;89.10
54202;DHT22;40108;53.152;5.844;2024-03-07T16:05:43;5.90;89.10
54202;DHT22;40108;53.152;5.844;2024-03-07T16:08:11;5.90;89.20
54202;DHT22;40108;53.152;5.844;2024-03-07T16:10:40;5.90;89.00
54202;DHT22;40108;53.152;5.844;2024-03-07T16:13:08;5.90;88.90
54202;DHT22;40108;53.152;5.844;2024-03-07T16:15:35;5.90;89.00
54202;DHT22;40108;53.152;5.844;2024-03-07T16:18:02;5.90;89.20
54202;DHT22;40108;53.152;5.844;2024-03-07T16:20:31;5.90;89.10